sensor_id;sensor_type;location;lat;lon;timestamp;P1;durP1;ratioP1;P2;durP2;ratioP2
36747;SDS011;22716;51.556;5.080;2023-08-17T00:00:02;8.02;;;2.17;;
36747;SDS011;22716;51.556;5.080;2023-08-17T00:02:34;2.70;;;1.75;;
36747;SDS011;22716;51.556;5.080;2023-08-17T00:05:05;3.37;;;1.67;;
36747;SDS011;22716;51.556;5.080;2023-08-17T00:07:34;9.47;;;2.20;;
36747;SDS011;22716;51.556;5.080;2023-08-17T00:10:03;4.03;;;2.40;;
36747;SDS011;22716;51.556;5.080;2023-08-17T00:12:32;4.63;;;1.63;;
36747;SDS011;22716;51.556;5.080;2023-08-17T00:15:01;5.50;;;1.80;;
36747;SDS011;22716;51.556;5.080;2023-08-17T00:17:30;8.33;;;2.23;;
36747;SDS011;22716;51.556;5.080;2023-08-17T00:19:58;8.48;;;2.00;;
36747;SDS011;22716;51.556;5.080;2023-08-17T00:22:33;5.55;;;2.05;;
36747;SDS011;22716;51.556;5.080;2023-08-17T00:25:01;4.47;;;1.80;;
36747;SDS011;22716;51.556;5.080;2023-08-17T00:27:31;4.28;;;2.13;;
36747;SDS011;22716;51.556;5.080;2023-08-17T00:30:00;4.68;;;1.80;;
36747;SDS011;22716;51.556;5.080;2023-08-17T00:32:29;5.70;;;2.20;;
36747;SDS011;22716;51.556;5.080;2023-08-17T00:34:57;4.00;;;1.75;;
36747;SDS011;22716;51.556;5.080;2023-08-17T00:37:26;5.32;;;1.77;;
36747;SDS011;22716;51.556;5.080;2023-08-17T00:39:57;2.93;;;1.60;;
36747;SDS011;22716;51.556;5.080;2023-08-17T00:42:26;3.70;;;1.77;;
36747;SDS011;22716;51.556;5.080;2023-08-17T00:44:54;4.07;;;1.85;;
36747;SDS011;22716;51.556;5.080;2023-08-17T00:47:23;5.75;;;1.92;;
36747;SDS011;22716;51.556;5.080;2023-08-17T00:49:53;6.20;;;2.30;;
36747;SDS011;22716;51.556;5.080;2023-08-17T00:52:22;3.03;;;1.40;;
36747;SDS011;22716;51.556;5.080;2023-08-17T00:54:51;7.32;;;2.63;;
36747;SDS011;22716;51.556;5.080;2023-08-17T00:57:22;8.63;;;2.07;;
36747;SDS011;22716;51.556;5.080;2023-08-17T00:59:51;4.57;;;1.58;;
36747;SDS011;22716;51.556;5.080;2023-08-17T01:02:20;7.78;;;2.65;;
36747;SDS011;22716;51.556;5.080;2023-08-17T01:04:49;4.78;;;1.70;;
36747;SDS011;22716;51.556;5.080;2023-08-17T01:07:18;4.25;;;2.00;;
36747;SDS011;22716;51.556;5.080;2023-08-17T01:09:47;4.28;;;2.22;;
36747;SDS011;22716;51.556;5.080;2023-08-17T01:12:17;5.30;;;2.08;;
36747;SDS011;22716;51.556;5.080;2023-08-17T01:14:56;5.72;;;1.60;;
36747;SDS011;22716;51.556;5.080;2023-08-17T01:17:33;3.80;;;1.20;;
36747;SDS011;22716;51.556;5.080;2023-08-17T01:22:37;7.13;;;1.70;;
36747;SDS011;22716;51.556;5.080;2023-08-17T01:25:11;4.18;;;1.90;;
36747;SDS011;22716;51.556;5.080;2023-08-17T01:27:41;3.30;;;1.80;;
36747;SDS011;22716;51.556;5.080;2023-08-17T01:30:14;5.75;;;1.52;;
36747;SDS011;22716;51.556;5.080;2023-08-17T01:32:48;5.97;;;1.90;;
36747;SDS011;22716;51.556;5.080;2023-08-17T01:35:21;3.33;;;1.67;;
36747;SDS011;22716;51.556;5.080;2023-08-17T01:37:58;4.28;;;1.67;;
36747;SDS011;22716;51.556;5.080;2023-08-17T01:40:33;4.57;;;1.98;;
36747;SDS011;22716;51.556;5.080;2023-08-17T01:43:03;6.00;;;2.22;;
36747;SDS011;22716;51.556;5.080;2023-08-17T01:45:31;3.17;;;1.80;;
36747;SDS011;22716;51.556;5.080;2023-08-17T01:48:00;5.88;;;2.38;;
36747;SDS011;22716;51.556;5.080;2023-08-17T01:50:29;6.35;;;1.85;;
36747;SDS011;22716;51.556;5.080;2023-08-17T01:52:57;6.38;;;2.80;;
36747;SDS011;22716;51.556;5.080;2023-08-17T01:55:26;3.65;;;1.70;;
36747;SDS011;22716;51.556;5.080;2023-08-17T01:57:57;2.95;;;1.73;;
36747;SDS011;22716;51.556;5.080;2023-08-17T02:00:26;2.72;;;1.83;;
36747;SDS011;22716;51.556;5.080;2023-08-17T02:02:54;3.40;;;1.58;;
36747;SDS011;22716;51.556;5.080;2023-08-17T02:05:23;3.87;;;2.10;;
36747;SDS011;22716;51.556;5.080;2023-08-17T02:07:53;5.55;;;1.90;;
36747;SDS011;22716;51.556;5.080;2023-08-17T02:10:22;3.90;;;1.60;;
36747;SDS011;22716;51.556;5.080;2023-08-17T02:12:50;7.07;;;2.00;;
36747;SDS011;22716;51.556;5.080;2023-08-17T02:15:21;4.80;;;1.58;;
36747;SDS011;22716;51.556;5.080;2023-08-17T02:17:50;4.57;;;1.87;;
36747;SDS011;22716;51.556;5.080;2023-08-17T02:20:19;5.70;;;1.80;;
36747;SDS011;22716;51.556;5.080;2023-08-17T02:22:47;3.33;;;1.60;;
36747;SDS011;22716;51.556;5.080;2023-08-17T02:25:16;4.45;;;1.67;;
36747;SDS011;22716;51.556;5.080;2023-08-17T02:27:44;6.43;;;2.50;;
36747;SDS011;22716;51.556;5.080;2023-08-17T02:30:13;6.73;;;1.77;;
36747;SDS011;22716;51.556;5.080;2023-08-17T02:32:44;2.10;;;1.77;;
36747;SDS011;22716;51.556;5.080;2023-08-17T02:35:13;3.90;;;1.97;;
36747;SDS011;22716;51.556;5.080;2023-08-17T02:37:41;3.85;;;1.70;;
36747;SDS011;22716;51.556;5.080;2023-08-17T02:40:10;2.50;;;1.40;;
36747;SDS011;22716;51.556;5.080;2023-08-17T02:42:39;3.83;;;1.13;;
36747;SDS011;22716;51.556;5.080;2023-08-17T02:45:08;3.13;;;1.67;;
36747;SDS011;22716;51.556;5.080;2023-08-17T02:47:38;6.15;;;2.28;;
36747;SDS011;22716;51.556;5.080;2023-08-17T02:50:09;4.35;;;2.22;;
36747;SDS011;22716;51.556;5.080;2023-08-17T02:52:38;2.70;;;1.60;;
36747;SDS011;22716;51.556;5.080;2023-08-17T02:55:07;3.77;;;1.83;;
36747;SDS011;22716;51.556;5.080;2023-08-17T02:57:36;6.95;;;1.77;;
36747;SDS011;22716;51.556;5.080;2023-08-17T03:00:05;5.18;;;1.73;;
36747;SDS011;22716;51.556;5.080;2023-08-17T03:02:35;4.15;;;1.55;;
36747;SDS011;22716;51.556;5.080;2023-08-17T03:05:03;4.72;;;1.58;;
36747;SDS011;22716;51.556;5.080;2023-08-17T03:07:35;4.00;;;1.80;;
36747;SDS011;22716;51.556;5.080;2023-08-17T03:10:04;3.60;;;1.40;;
36747;SDS011;22716;51.556;5.080;2023-08-17T03:12:33;5.18;;;1.65;;
36747;SDS011;22716;51.556;5.080;2023-08-17T03:15:03;4.50;;;1.58;;
36747;SDS011;22716;51.556;5.080;2023-08-17T03:17:32;4.80;;;1.80;;
36747;SDS011;22716;51.556;5.080;2023-08-17T03:20:00;6.90;;;1.73;;
36747;SDS011;22716;51.556;5.080;2023-08-17T03:22:31;3.97;;;1.48;;
36747;SDS011;22716;51.556;5.080;2023-08-17T03:25:03;4.70;;;2.08;;
36747;SDS011;22716;51.556;5.080;2023-08-17T03:27:33;5.70;;;1.25;;
36747;SDS011;22716;51.556;5.080;2023-08-17T03:30:01;3.57;;;1.53;;
36747;SDS011;22716;51.556;5.080;2023-08-17T03:32:30;6.95;;;2.10;;
36747;SDS011;22716;51.556;5.080;2023-08-17T03:34:59;3.85;;;2.13;;
36747;SDS011;22716;51.556;5.080;2023-08-17T03:37:27;3.70;;;1.60;;
36747;SDS011;22716;51.556;5.080;2023-08-17T03:39:59;6.03;;;1.95;;
36747;SDS011;22716;51.556;5.080;2023-08-17T03:42:28;3.45;;;1.83;;
36747;SDS011;22716;51.556;5.080;2023-08-17T03:44:56;10.20;;;2.78;;
36747;SDS011;22716;51.556;5.080;2023-08-17T03:47:25;5.25;;;1.60;;
36747;SDS011;22716;51.556;5.080;2023-08-17T03:49:54;4.63;;;1.90;;
36747;SDS011;22716;51.556;5.080;2023-08-17T03:52:22;6.85;;;2.10;;
36747;SDS011;22716;51.556;5.080;2023-08-17T03:54:51;4.10;;;2.13;;
36747;SDS011;22716;51.556;5.080;2023-08-17T03:57:22;4.13;;;1.80;;
36747;SDS011;22716;51.556;5.080;2023-08-17T03:59:51;3.42;;;2.22;;
36747;SDS011;22716;51.556;5.080;2023-08-17T04:02:19;2.33;;;1.42;;
36747;SDS011;22716;51.556;5.080;2023-08-17T04:04:48;4.10;;;1.50;;
36747;SDS011;22716;51.556;5.080;2023-08-17T04:07:20;4.78;;;1.65;;
36747;SDS011;22716;51.556;5.080;2023-08-17T04:09:49;3.60;;;1.60;;
36747;SDS011;22716;51.556;5.080;2023-08-17T04:12:17;3.97;;;1.50;;
36747;SDS011;22716;51.556;5.080;2023-08-17T04:14:49;6.00;;;1.65;;
36747;SDS011;22716;51.556;5.080;2023-08-17T04:17:17;3.70;;;1.60;;
36747;SDS011;22716;51.556;5.080;2023-08-17T04:19:46;5.95;;;1.80;;
36747;SDS011;22716;51.556;5.080;2023-08-17T04:22:15;2.67;;;1.73;;
36747;SDS011;22716;51.556;5.080;2023-08-17T04:24:44;5.70;;;2.22;;
36747;SDS011;22716;51.556;5.080;2023-08-17T04:27:12;4.55;;;2.03;;
36747;SDS011;22716;51.556;5.080;2023-08-17T04:29:41;6.57;;;1.77;;
36747;SDS011;22716;51.556;5.080;2023-08-17T04:32:16;4.00;;;1.83;;
36747;SDS011;22716;51.556;5.080;2023-08-17T04:34:45;10.18;;;1.90;;
36747;SDS011;22716;51.556;5.080;2023-08-17T04:37:14;6.32;;;1.98;;
36747;SDS011;22716;51.556;5.080;2023-08-17T04:39:43;2.92;;;1.88;;
36747;SDS011;22716;51.556;5.080;2023-08-17T04:42:14;7.73;;;2.23;;
36747;SDS011;22716;51.556;5.080;2023-08-17T04:44:42;4.72;;;2.35;;
36747;SDS011;22716;51.556;5.080;2023-08-17T04:47:11;4.45;;;1.83;;
36747;SDS011;22716;51.556;5.080;2023-08-17T04:49:42;5.28;;;2.33;;
36747;SDS011;22716;51.556;5.080;2023-08-17T04:52:11;4.85;;;2.35;;
36747;SDS011;22716;51.556;5.080;2023-08-17T04:54:39;11.50;;;3.53;;
36747;SDS011;22716;51.556;5.080;2023-08-17T04:57:08;13.48;;;4.55;;
36747;SDS011;22716;51.556;5.080;2023-08-17T04:59:36;6.88;;;2.50;;
36747;SDS011;22716;51.556;5.080;2023-08-17T05:02:05;13.35;;;4.18;;
36747;SDS011;22716;51.556;5.080;2023-08-17T05:04:34;7.47;;;2.97;;
36747;SDS011;22716;51.556;5.080;2023-08-17T05:07:07;4.65;;;1.73;;
36747;SDS011;22716;51.556;5.080;2023-08-17T05:09:36;11.68;;;4.78;;
36747;SDS011;22716;51.556;5.080;2023-08-17T05:12:05;10.30;;;3.88;;
36747;SDS011;22716;51.556;5.080;2023-08-17T05:14:34;5.38;;;2.13;;
36747;SDS011;22716;51.556;5.080;2023-08-17T05:17:03;4.38;;;1.67;;
36747;SDS011;22716;51.556;5.080;2023-08-17T05:19:31;5.70;;;1.75;;
36747;SDS011;22716;51.556;5.080;2023-08-17T05:22:00;4.40;;;1.80;;
36747;SDS011;22716;51.556;5.080;2023-08-17T05:24:31;3.65;;;1.88;;
36747;SDS011;22716;51.556;5.080;2023-08-17T05:27:00;4.72;;;1.50;;
36747;SDS011;22716;51.556;5.080;2023-08-17T05:29:28;9.40;;;2.22;;
36747;SDS011;22716;51.556;5.080;2023-08-17T05:31:57;5.90;;;1.80;;
36747;SDS011;22716;51.556;5.080;2023-08-17T05:34:26;4.53;;;1.52;;
36747;SDS011;22716;51.556;5.080;2023-08-17T05:36:54;4.57;;;1.63;;
36747;SDS011;22716;51.556;5.080;2023-08-17T05:39:23;15.13;;;2.45;;
36747;SDS011;22716;51.556;5.080;2023-08-17T05:41:54;3.95;;;1.70;;
36747;SDS011;22716;51.556;5.080;2023-08-17T05:44:23;7.00;;;2.10;;
36747;SDS011;22716;51.556;5.080;2023-08-17T05:46:51;3.72;;;2.10;;
36747;SDS011;22716;51.556;5.080;2023-08-17T05:49:20;6.38;;;1.80;;
36747;SDS011;22716;51.556;5.080;2023-08-17T05:51:48;3.38;;;1.60;;
36747;SDS011;22716;51.556;5.080;2023-08-17T05:54:17;3.92;;;1.85;;
36747;SDS011;22716;51.556;5.080;2023-08-17T05:56:45;5.55;;;1.70;;
36747;SDS011;22716;51.556;5.080;2023-08-17T05:59:17;5.40;;;1.88;;
36747;SDS011;22716;51.556;5.080;2023-08-17T06:01:45;7.07;;;1.77;;
36747;SDS011;22716;51.556;5.080;2023-08-17T06:04:14;4.22;;;1.95;;
36747;SDS011;22716;51.556;5.080;2023-08-17T06:06:42;3.57;;;1.80;;
36747;SDS011;22716;51.556;5.080;2023-08-17T06:09:11;5.22;;;2.10;;
36747;SDS011;22716;51.556;5.080;2023-08-17T06:11:39;3.67;;;1.70;;
36747;SDS011;22716;51.556;5.080;2023-08-17T06:14:08;6.25;;;2.33;;
36747;SDS011;22716;51.556;5.080;2023-08-17T06:16:40;5.22;;;3.17;;
36747;SDS011;22716;51.556;5.080;2023-08-17T06:19:09;2.80;;;2.10;;
36747;SDS011;22716;51.556;5.080;2023-08-17T06:21:37;5.82;;;2.10;;
36747;SDS011;22716;51.556;5.080;2023-08-17T06:24:06;4.93;;;2.05;;
36747;SDS011;22716;51.556;5.080;2023-08-17T06:26:34;5.93;;;2.33;;
36747;SDS011;22716;51.556;5.080;2023-08-17T06:29:03;6.80;;;1.92;;
36747;SDS011;22716;51.556;5.080;2023-08-17T06:31:32;9.23;;;2.40;;
36747;SDS011;22716;51.556;5.080;2023-08-17T06:34:03;10.68;;;2.78;;
36747;SDS011;22716;51.556;5.080;2023-08-17T06:36:32;6.57;;;2.20;;
36747;SDS011;22716;51.556;5.080;2023-08-17T06:39:01;5.78;;;2.17;;
36747;SDS011;22716;51.556;5.080;2023-08-17T06:41:29;4.43;;;2.87;;
36747;SDS011;22716;51.556;5.080;2023-08-17T06:43:58;5.53;;;1.90;;
36747;SDS011;22716;51.556;5.080;2023-08-17T06:46:26;5.75;;;2.08;;
36747;SDS011;22716;51.556;5.080;2023-08-17T06:48:55;8.73;;;2.40;;
36747;SDS011;22716;51.556;5.080;2023-08-17T06:51:27;6.45;;;2.90;;
36747;SDS011;22716;51.556;5.080;2023-08-17T06:53:55;6.63;;;2.67;;
36747;SDS011;22716;51.556;5.080;2023-08-17T06:56:24;5.72;;;2.20;;
36747;SDS011;22716;51.556;5.080;2023-08-17T06:58:52;5.97;;;2.28;;
36747;SDS011;22716;51.556;5.080;2023-08-17T07:01:21;5.25;;;2.15;;
36747;SDS011;22716;51.556;5.080;2023-08-17T07:03:49;5.80;;;2.13;;
36747;SDS011;22716;51.556;5.080;2023-08-17T07:06:18;9.65;;;3.13;;
36747;SDS011;22716;51.556;5.080;2023-08-17T07:08:50;7.13;;;2.10;;
36747;SDS011;22716;51.556;5.080;2023-08-17T07:11:19;4.47;;;1.90;;
36747;SDS011;22716;51.556;5.080;2023-08-17T07:13:47;5.43;;;1.55;;
36747;SDS011;22716;51.556;5.080;2023-08-17T07:16:16;6.43;;;1.77;;
36747;SDS011;22716;51.556;5.080;2023-08-17T07:18:45;6.13;;;2.63;;
36747;SDS011;22716;51.556;5.080;2023-08-17T07:21:13;6.47;;;2.00;;
36747;SDS011;22716;51.556;5.080;2023-08-17T07:23:44;6.00;;;2.22;;
36747;SDS011;22716;51.556;5.080;2023-08-17T07:26:16;6.15;;;2.38;;
36747;SDS011;22716;51.556;5.080;2023-08-17T07:28:44;3.80;;;2.00;;
36747;SDS011;22716;51.556;5.080;2023-08-17T07:31:13;7.03;;;2.00;;
36747;SDS011;22716;51.556;5.080;2023-08-17T07:33:41;6.15;;;2.47;;
36747;SDS011;22716;51.556;5.080;2023-08-17T07:36:10;8.57;;;2.17;;
36747;SDS011;22716;51.556;5.080;2023-08-17T07:38:38;5.97;;;2.00;;
36747;SDS011;22716;51.556;5.080;2023-08-17T07:41:07;5.20;;;2.20;;
36747;SDS011;22716;51.556;5.080;2023-08-17T07:43:38;5.53;;;1.93;;
36747;SDS011;22716;51.556;5.080;2023-08-17T07:46:07;7.33;;;2.77;;
36747;SDS011;22716;51.556;5.080;2023-08-17T07:48:35;7.82;;;2.20;;
36747;SDS011;22716;51.556;5.080;2023-08-17T07:51:04;7.85;;;2.25;;
36747;SDS011;22716;51.556;5.080;2023-08-17T07:53:32;8.82;;;2.70;;
36747;SDS011;22716;51.556;5.080;2023-08-17T07:56:01;7.38;;;2.63;;
36747;SDS011;22716;51.556;5.080;2023-08-17T07:58:29;4.60;;;1.83;;
36747;SDS011;22716;51.556;5.080;2023-08-17T08:01:01;6.72;;;2.10;;
36747;SDS011;22716;51.556;5.080;2023-08-17T08:03:30;3.67;;;2.08;;
36747;SDS011;22716;51.556;5.080;2023-08-17T08:05:58;5.83;;;2.03;;
36747;SDS011;22716;51.556;5.080;2023-08-17T08:08:27;3.93;;;2.60;;
36747;SDS011;22716;51.556;5.080;2023-08-17T08:10:55;7.30;;;2.30;;
36747;SDS011;22716;51.556;5.080;2023-08-17T08:13:24;9.85;;;2.40;;
36747;SDS011;22716;51.556;5.080;2023-08-17T08:15:52;4.57;;;2.23;;
36747;SDS011;22716;51.556;5.080;2023-08-17T08:18:23;7.35;;;2.00;;
36747;SDS011;22716;51.556;5.080;2023-08-17T08:20:52;7.32;;;3.22;;
36747;SDS011;22716;51.556;5.080;2023-08-17T08:23:20;3.13;;;2.42;;
36747;SDS011;22716;51.556;5.080;2023-08-17T08:25:49;10.57;;;2.53;;
36747;SDS011;22716;51.556;5.080;2023-08-17T08:28:18;6.43;;;2.65;;
36747;SDS011;22716;51.556;5.080;2023-08-17T08:30:46;6.97;;;2.42;;
36747;SDS011;22716;51.556;5.080;2023-08-17T08:33:15;11.60;;;2.97;;
36747;SDS011;22716;51.556;5.080;2023-08-17T08:35:46;6.63;;;4.17;;
36747;SDS011;22716;51.556;5.080;2023-08-17T08:38:15;5.73;;;2.63;;
36747;SDS011;22716;51.556;5.080;2023-08-17T08:40:43;6.23;;;3.43;;
36747;SDS011;22716;51.556;5.080;2023-08-17T08:43:15;4.03;;;2.58;;
36747;SDS011;22716;51.556;5.080;2023-08-17T08:45:43;12.90;;;3.40;;
36747;SDS011;22716;51.556;5.080;2023-08-17T08:48:14;6.87;;;2.90;;
36747;SDS011;22716;51.556;5.080;2023-08-17T08:50:48;5.22;;;2.60;;
36747;SDS011;22716;51.556;5.080;2023-08-17T08:53:19;7.00;;;2.73;;
36747;SDS011;22716;51.556;5.080;2023-08-17T08:55:55;5.53;;;2.97;;
36747;SDS011;22716;51.556;5.080;2023-08-17T08:58:26;6.00;;;2.53;;
36747;SDS011;22716;51.556;5.080;2023-08-17T09:00:57;9.48;;;3.20;;
36747;SDS011;22716;51.556;5.080;2023-08-17T09:03:28;7.68;;;4.35;;
36747;SDS011;22716;51.556;5.080;2023-08-17T09:06:01;7.47;;;3.22;;
36747;SDS011;22716;51.556;5.080;2023-08-17T09:08:30;4.22;;;2.95;;
36747;SDS011;22716;51.556;5.080;2023-08-17T09:10:59;5.65;;;3.95;;
36747;SDS011;22716;51.556;5.080;2023-08-17T09:13:28;7.30;;;3.50;;
36747;SDS011;22716;51.556;5.080;2023-08-17T09:15:57;8.03;;;3.27;;
36747;SDS011;22716;51.556;5.080;2023-08-17T09:18:27;6.70;;;3.20;;
36747;SDS011;22716;51.556;5.080;2023-08-17T09:20:56;7.00;;;3.50;;
36747;SDS011;22716;51.556;5.080;2023-08-17T09:23:27;7.27;;;3.73;;
36747;SDS011;22716;51.556;5.080;2023-08-17T09:25:56;8.77;;;3.47;;
36747;SDS011;22716;51.556;5.080;2023-08-17T09:28:26;6.25;;;3.53;;
36747;SDS011;22716;51.556;5.080;2023-08-17T09:30:55;9.20;;;4.20;;
36747;SDS011;22716;51.556;5.080;2023-08-17T09:33:25;8.50;;;3.17;;
36747;SDS011;22716;51.556;5.080;2023-08-17T09:35:55;9.15;;;4.43;;
36747;SDS011;22716;51.556;5.080;2023-08-17T09:38:27;4.63;;;3.13;;
36747;SDS011;22716;51.556;5.080;2023-08-17T09:40:57;4.50;;;3.38;;
36747;SDS011;22716;51.556;5.080;2023-08-17T09:43:26;10.00;;;3.90;;
36747;SDS011;22716;51.556;5.080;2023-08-17T09:45:58;7.93;;;3.63;;
36747;SDS011;22716;51.556;5.080;2023-08-17T09:48:27;7.93;;;3.45;;
36747;SDS011;22716;51.556;5.080;2023-08-17T09:50:56;9.80;;;3.83;;
36747;SDS011;22716;51.556;5.080;2023-08-17T09:53:34;5.72;;;4.20;;
36747;SDS011;22716;51.556;5.080;2023-08-17T09:56:05;9.10;;;3.90;;
36747;SDS011;22716;51.556;5.080;2023-08-17T09:58:36;11.20;;;4.70;;
36747;SDS011;22716;51.556;5.080;2023-08-17T10:01:05;10.80;;;5.23;;
36747;SDS011;22716;51.556;5.080;2023-08-17T10:03:35;12.55;;;4.38;;
36747;SDS011;22716;51.556;5.080;2023-08-17T10:06:09;14.50;;;4.63;;
36747;SDS011;22716;51.556;5.080;2023-08-17T10:08:45;12.23;;;4.65;;
36747;SDS011;22716;51.556;5.080;2023-08-17T10:11:16;11.32;;;4.95;;
36747;SDS011;22716;51.556;5.080;2023-08-17T10:13:48;13.60;;;4.40;;
36747;SDS011;22716;51.556;5.080;2023-08-17T10:16:22;13.90;;;4.83;;
36747;SDS011;22716;51.556;5.080;2023-08-17T10:18:53;6.60;;;3.43;;
36747;SDS011;22716;51.556;5.080;2023-08-17T10:21:27;9.50;;;4.43;;
36747;SDS011;22716;51.556;5.080;2023-08-17T10:24:00;7.53;;;4.72;;
36747;SDS011;22716;51.556;5.080;2023-08-17T10:26:31;14.40;;;5.82;;
36747;SDS011;22716;51.556;5.080;2023-08-17T10:29:01;16.17;;;5.68;;
36747;SDS011;22716;51.556;5.080;2023-08-17T10:31:33;10.37;;;6.13;;
36747;SDS011;22716;51.556;5.080;2023-08-17T10:34:02;9.00;;;5.53;;
36747;SDS011;22716;51.556;5.080;2023-08-17T10:36:32;11.20;;;5.43;;
36747;SDS011;22716;51.556;5.080;2023-08-17T10:39:20;12.35;;;5.07;;
36747;SDS011;22716;51.556;5.080;2023-08-17T10:41:50;10.03;;;5.33;;
36747;SDS011;22716;51.556;5.080;2023-08-17T10:47:20;9.23;;;5.15;;
36747;SDS011;22716;51.556;5.080;2023-08-17T10:49:50;10.10;;;5.30;;
36747;SDS011;22716;51.556;5.080;2023-08-17T10:52:27;7.43;;;4.60;;
36747;SDS011;22716;51.556;5.080;2023-08-17T10:55:04;13.48;;;4.55;;
36747;SDS011;22716;51.556;5.080;2023-08-17T10:57:35;10.00;;;4.35;;
36747;SDS011;22716;51.556;5.080;2023-08-17T11:00:05;9.85;;;4.80;;
36747;SDS011;22716;51.556;5.080;2023-08-17T11:02:45;16.17;;;5.57;;
36747;SDS011;22716;51.556;5.080;2023-08-17T11:05:13;14.30;;;5.90;;
36747;SDS011;22716;51.556;5.080;2023-08-17T11:07:42;12.07;;;5.10;;
36747;SDS011;22716;51.556;5.080;2023-08-17T11:13:00;10.60;;;5.50;;
36747;SDS011;22716;51.556;5.080;2023-08-17T11:15:35;11.80;;;5.23;;
36747;SDS011;22716;51.556;5.080;2023-08-17T11:18:08;11.45;;;5.97;;
36747;SDS011;22716;51.556;5.080;2023-08-17T11:20:38;9.63;;;5.93;;
36747;SDS011;22716;51.556;5.080;2023-08-17T11:23:08;11.37;;;5.63;;
36747;SDS011;22716;51.556;5.080;2023-08-17T11:25:41;11.88;;;4.85;;
36747;SDS011;22716;51.556;5.080;2023-08-17T11:28:10;7.73;;;4.83;;
36747;SDS011;22716;51.556;5.080;2023-08-17T11:30:39;7.75;;;5.32;;
36747;SDS011;22716;51.556;5.080;2023-08-17T11:33:08;12.95;;;5.75;;
36747;SDS011;22716;51.556;5.080;2023-08-17T11:35:38;11.17;;;5.57;;
36747;SDS011;22716;51.556;5.080;2023-08-17T11:38:07;12.00;;;5.17;;
36747;SDS011;22716;51.556;5.080;2023-08-17T11:40:36;12.27;;;5.23;;
36747;SDS011;22716;51.556;5.080;2023-08-17T11:43:07;13.03;;;5.23;;
36747;SDS011;22716;51.556;5.080;2023-08-17T11:45:36;10.10;;;5.32;;
36747;SDS011;22716;51.556;5.080;2023-08-17T11:48:05;8.07;;;4.87;;
36747;SDS011;22716;51.556;5.080;2023-08-17T11:50:34;14.67;;;5.43;;
36747;SDS011;22716;51.556;5.080;2023-08-17T11:53:03;11.65;;;6.70;;
36747;SDS011;22716;51.556;5.080;2023-08-17T11:55:32;12.32;;;5.95;;
36747;SDS011;22716;51.556;5.080;2023-08-17T11:58:01;10.63;;;5.22;;
36747;SDS011;22716;51.556;5.080;2023-08-17T12:00:37;11.43;;;5.80;;
36747;SDS011;22716;51.556;5.080;2023-08-17T12:03:12;15.10;;;5.23;;
36747;SDS011;22716;51.556;5.080;2023-08-17T12:05:43;11.80;;;5.23;;
36747;SDS011;22716;51.556;5.080;2023-08-17T12:08:14;14.02;;;5.45;;
36747;SDS011;22716;51.556;5.080;2023-08-17T12:10:42;11.57;;;5.38;;
36747;SDS011;22716;51.556;5.080;2023-08-17T12:13:13;10.80;;;6.53;;
36747;SDS011;22716;51.556;5.080;2023-08-17T12:15:45;9.95;;;7.03;;
36747;SDS011;22716;51.556;5.080;2023-08-17T12:18:13;14.60;;;7.68;;
36747;SDS011;22716;51.556;5.080;2023-08-17T12:20:44;9.23;;;5.83;;
36747;SDS011;22716;51.556;5.080;2023-08-17T12:23:21;12.23;;;6.73;;
36747;SDS011;22716;51.556;5.080;2023-08-17T12:25:53;10.57;;;6.30;;
36747;SDS011;22716;51.556;5.080;2023-08-17T12:28:23;10.52;;;7.22;;
36747;SDS011;22716;51.556;5.080;2023-08-17T12:31:02;11.18;;;6.22;;
36747;SDS011;22716;51.556;5.080;2023-08-17T12:33:31;15.57;;;7.00;;
36747;SDS011;22716;51.556;5.080;2023-08-17T12:35:59;12.87;;;6.33;;
36747;SDS011;22716;51.556;5.080;2023-08-17T12:38:29;12.93;;;7.70;;
36747;SDS011;22716;51.556;5.080;2023-08-17T12:40:58;14.23;;;8.32;;
36747;SDS011;22716;51.556;5.080;2023-08-17T12:43:26;16.17;;;7.30;;
36747;SDS011;22716;51.556;5.080;2023-08-17T12:45:55;14.02;;;6.68;;
36747;SDS011;22716;51.556;5.080;2023-08-17T12:48:26;15.98;;;7.25;;
36747;SDS011;22716;51.556;5.080;2023-08-17T12:50:54;10.30;;;7.03;;
36747;SDS011;22716;51.556;5.080;2023-08-17T12:53:23;11.98;;;7.28;;
36747;SDS011;22716;51.556;5.080;2023-08-17T12:55:51;13.27;;;8.05;;
36747;SDS011;22716;51.556;5.080;2023-08-17T12:58:20;12.00;;;6.65;;
36747;SDS011;22716;51.556;5.080;2023-08-17T13:00:49;11.02;;;6.50;;
36747;SDS011;22716;51.556;5.080;2023-08-17T13:03:19;12.13;;;6.63;;
36747;SDS011;22716;51.556;5.080;2023-08-17T13:05:51;14.98;;;7.10;;
36747;SDS011;22716;51.556;5.080;2023-08-17T13:08:20;10.60;;;6.83;;
36747;SDS011;22716;51.556;5.080;2023-08-17T13:10:48;17.52;;;7.88;;
36747;SDS011;22716;51.556;5.080;2023-08-17T13:13:17;19.57;;;7.67;;
36747;SDS011;22716;51.556;5.080;2023-08-17T13:15:46;11.30;;;7.40;;
36747;SDS011;22716;51.556;5.080;2023-08-17T13:18:15;10.00;;;7.60;;
36747;SDS011;22716;51.556;5.080;2023-08-17T13:20:43;12.67;;;7.03;;
36747;SDS011;22716;51.556;5.080;2023-08-17T13:23:14;15.23;;;7.93;;
36747;SDS011;22716;51.556;5.080;2023-08-17T13:25:43;14.60;;;9.30;;
36747;SDS011;22716;51.556;5.080;2023-08-17T13:28:11;13.43;;;8.27;;
36747;SDS011;22716;51.556;5.080;2023-08-17T13:30:40;11.87;;;7.83;;
36747;SDS011;22716;51.556;5.080;2023-08-17T13:33:09;15.18;;;7.35;;
36747;SDS011;22716;51.556;5.080;2023-08-17T13:35:37;10.07;;;6.37;;
36747;SDS011;22716;51.556;5.080;2023-08-17T13:38:06;18.27;;;8.87;;
36747;SDS011;22716;51.556;5.080;2023-08-17T13:40:37;18.27;;;9.00;;
36747;SDS011;22716;51.556;5.080;2023-08-17T13:43:06;17.23;;;10.20;;
36747;SDS011;22716;51.556;5.080;2023-08-17T13:45:38;15.07;;;8.55;;
36747;SDS011;22716;51.556;5.080;2023-08-17T13:48:07;14.67;;;9.27;;
36747;SDS011;22716;51.556;5.080;2023-08-17T13:50:37;12.37;;;7.97;;
36747;SDS011;22716;51.556;5.080;2023-08-17T13:53:07;15.20;;;8.55;;
36747;SDS011;22716;51.556;5.080;2023-08-17T13:55:38;14.75;;;8.55;;
36747;SDS011;22716;51.556;5.080;2023-08-17T13:58:06;11.93;;;7.70;;
36747;SDS011;22716;51.556;5.080;2023-08-17T14:00:36;16.47;;;8.40;;
36747;SDS011;22716;51.556;5.080;2023-08-17T14:03:05;18.77;;;9.67;;
36747;SDS011;22716;51.556;5.080;2023-08-17T14:05:34;18.45;;;9.27;;
36747;SDS011;22716;51.556;5.080;2023-08-17T14:08:03;14.15;;;9.13;;
36747;SDS011;22716;51.556;5.080;2023-08-17T14:10:33;11.73;;;7.45;;
36747;SDS011;22716;51.556;5.080;2023-08-17T14:13:04;13.73;;;8.80;;
36747;SDS011;22716;51.556;5.080;2023-08-17T14:15:33;18.80;;;8.37;;
36747;SDS011;22716;51.556;5.080;2023-08-17T14:18:01;15.00;;;8.67;;
36747;SDS011;22716;51.556;5.080;2023-08-17T14:20:30;11.57;;;8.30;;
36747;SDS011;22716;51.556;5.080;2023-08-17T14:22:58;13.38;;;8.23;;
36747;SDS011;22716;51.556;5.080;2023-08-17T14:25:27;13.10;;;8.10;;
36747;SDS011;22716;51.556;5.080;2023-08-17T14:27:57;11.73;;;8.43;;
36747;SDS011;22716;51.556;5.080;2023-08-17T14:30:28;16.00;;;9.48;;
36747;SDS011;22716;51.556;5.080;2023-08-17T14:32:57;13.37;;;8.03;;
36747;SDS011;22716;51.556;5.080;2023-08-17T14:35:26;14.47;;;9.10;;
36747;SDS011;22716;51.556;5.080;2023-08-17T14:37:55;13.17;;;8.30;;
36747;SDS011;22716;51.556;5.080;2023-08-17T14:40:26;12.63;;;8.50;;
36747;SDS011;22716;51.556;5.080;2023-08-17T14:42:55;15.07;;;9.63;;
36747;SDS011;22716;51.556;5.080;2023-08-17T14:45:24;12.87;;;8.43;;
36747;SDS011;22716;51.556;5.080;2023-08-17T14:47:55;12.63;;;8.20;;
36747;SDS011;22716;51.556;5.080;2023-08-17T14:50:24;10.77;;;8.43;;
36747;SDS011;22716;51.556;5.080;2023-08-17T14:52:53;12.23;;;9.30;;
36747;SDS011;22716;51.556;5.080;2023-08-17T14:55:21;13.23;;;8.30;;
36747;SDS011;22716;51.556;5.080;2023-08-17T14:57:50;13.13;;;9.10;;
36747;SDS011;22716;51.556;5.080;2023-08-17T15:00:18;16.27;;;10.17;;
36747;SDS011;22716;51.556;5.080;2023-08-17T15:02:47;14.73;;;8.90;;
36747;SDS011;22716;51.556;5.080;2023-08-17T15:05:18;14.65;;;9.18;;